Nearby METAR Reports

 

KCRW - Charleston, West Virginia, USA
Distance from station: WNW 2mi, 4km
Updated: 02/19/2018 11:54pm
Mostly cloudy
Mostly cloudy
 Wind from S
Wind: S 9 mph , 15 km/h
Temperature: 64°F , 18°C
Dew Point: 54°F , 12°C
Humidity: 68%
Barometer: 30.21 inHg , 1023 hPa
Clouds: Mostly cloudy
Visibility: 10 miles , 16 km
Cloud details: Mostly cloudy 7000 ft
2018/02/20 04:54 KCRW 200454Z 17008KT 10SM BKN070 18/12 A3021 RMK AO2 SLP224 T01830117 402390033
K6L4 - Logan, West Virginia, USA
Distance from station: SSW 41mi, 66km
Updated: 02/20/2018 12:35am
Overcast
Overcast
 Wind from S
Wind: S 10 mph , 17 km/h
Temperature: 64°F , 18°C
Dew Point: 54°F , 12°C
Humidity: 68%
Barometer: 30.25 inHg , 1024.4 hPa
Clouds: Overcast
Visibility: 10 miles , 16 km
Cloud details: Overcast 8000 ft
2018/02/20 05:35 K6L4 200535Z AUTO 18009KT 10SM OVC080 18/12 A3025 RMK AO2
 
KBKW - Beckley, West Virginia, USA
Distance from station: SSE 46mi, 74km
Updated: 02/19/2018 11:51pm
Partly cloudy
Partly cloudy
 Wind from SSE
Wind: SSE 10 mph , 17 km/h
Temperature: 57°F , 14°C
Dew Point: 52°F , 11°C
Humidity: 82%
Barometer: 30.30 inHg , 1026.1 hPa
Clouds: Partly cloudy
Visibility: 10 miles , 16 km
Cloud details: Partly cloudy 6000 ft
2018/02/20 04:51 KBKW 200451Z AUTO 15009KT 10SM SCT060 14/11 A3030 RMK AO2 SLP250 T01390111 401780056 TSNO
K3I2 - Pt Pleasant, West Virginia, USA
Distance from station: NW 48mi, 77km
Updated: 02/20/2018 12:35am
Clear
Clear
 Wind from S
Wind: S 5 mph , 7 km/h
Temperature: 64°F , 18°C
Dew Point: 54°F , 12°C
Humidity: 68%
Barometer: 30.19 inHg , 1022.4 hPa
Clouds: Clear
Visibility: 10 miles , 16 km
2018/02/20 05:35 K3I2 200535Z AUTO 17004KT 10SM CLR 18/12 A3019 RMK AO2 T01810120
 
KHTS - Huntington, West Virginia, USA
Distance from station: W 54mi, 87km
Updated: 02/19/2018 11:51pm
Clear
Clear
 Wind from S
Wind: S 8 mph , 13 km/h
Temperature: 64°F , 18°C
Dew Point: 52°F , 11°C
Humidity: 64%
Barometer: 30.19 inHg , 1022.4 hPa
Clouds: Clear
Visibility: 10 miles , 16 km
2018/02/20 04:51 KHTS 200451Z 17007KT 10SM CLR 18/11 A3019 RMK AO2 SLP217 T01830111 402390028
KPKB - Parkersburg, West Virginia, USA
Distance from station: N 68mi, 110km
Updated: 02/19/2018 11:53pm
Clear
Clear
 Wind from S
Wind: S 9 mph , 15 km/h
Temperature: 64°F , 18°C
Dew Point: 52°F , 11°C
Humidity: 64%
Barometer: 30.20 inHg , 1022.7 hPa
Clouds: Clear
Visibility: 10 miles , 16 km
2018/02/20 04:53 KPKB 200453Z AUTO 19008KT 10SM CLR 18/11 A3020 RMK AO2 SLP222 T01830106 402170000 $
 
KUNI - Athens, Ohio, USA
Distance from station: NNW 69mi, 111km
Updated: 02/20/2018 12:35am
Clear
Clear
 Wind from S
Wind: S 6 mph , 9 km/h
Temperature: 63°F , 17°C
Dew Point: 54°F , 12°C
Humidity: 73%
Barometer: 30.16 inHg , 1021.3 hPa
Clouds: Clear
Visibility: 10 miles , 16 km
2018/02/20 05:35 KUNI 200535Z AUTO 18005KT 10SM CLR 17/12 A3016 RMK AO2 T01700115
KLWB - Lewisburg/Greenb, West Virginia, USA
Distance from station: ESE 71mi, 115km
Updated: 02/20/2018 12:15am
Mostly cloudy
Mostly cloudy
 Wind from calm
Wind: Calm
Temperature: 46°F , 8°C
Dew Point: 45°F , 7°C
Humidity: 93%
Barometer: 30.35 inHg , 1027.8 hPa
Clouds: Mostly cloudy
Visibility: 7 miles , 11 km
Cloud details: Mostly cloudy 5000 ft
2018/02/20 05:15 KLWB 200515Z AUTO 00000KT 7SM BKN050 08/07 A3035 RMK AO2 T00750070
 
KSJS - Big Sandy Rgnl, Kentucky, USA
Distance from station: SW 73mi, 117km
Updated: 02/20/2018 12:15am
Clear
Clear
 Wind from S
Wind: S 8 mph , 13 km/h
Temperature: 64°F , 18°C
Dew Point: 54°F , 12°C
Humidity: 68%
Barometer: 30.23 inHg , 1023.7 hPa
Clouds: Clear
Visibility: 10 miles , 16 km
2018/02/20 05:15 KSJS 200515Z AUTO 18007KT 10SM CLR 18/12 A3023 RMK AO2 T01790115